Time;durP1;ratioP1;P1;durP2;ratioP2;P2;SDS_P1;SDS_P2;PMS_P1;PMS_P2;Temp;Humidity;BMP_temperature;BMP_pressure;BME280_temperature;BME280_humidity;BME280_pressure;Samples;Min_cycle;Max_cycle;Signal;HPM_P1;HPM_P2
2021/12/17 00:03:06;;;;;;;24.10;12.53;;;6.10;99.90;;;;;;647294;222;26821;-80
2021/12/17 00:04:50;;;;;;;29.40;13.60;;;6.30;99.90;;;;;;645475;222;26524;-81
2021/12/17 00:07:07;;;;;;;25.90;13.47;;;6.30;99.90;;;;;;646380;222;26523;-81
2021/12/17 00:09:34;;;;;;;31.10;14.00;;;6.50;99.90;;;;;;647548;220;26560;-81
2021/12/17 00:12:01;;;;;;;24.97;12.73;;;6.50;99.90;;;;;;649116;221;26817;-81
2021/12/17 00:14:36;;;;;;;23.10;12.53;;;6.30;99.90;;;;;;648557;222;26563;-81
2021/12/17 00:16:56;;;;;;;26.53;12.60;;;6.10;99.90;;;;;;647573;222;27264;-80
2021/12/17 00:19:42;;;;;;;24.50;12.83;;;6.20;99.90;;;;;;647960;218;26557;-81
2021/12/17 00:52:32;;;;;;;26.77;13.40;;;6.00;99.90;;;;;;647313;222;26511;-79
2021/12/17 00:54:56;;;;;;;22.07;11.70;;;6.10;99.90;;;;;;647195;222;26812;-79
2021/12/17 00:57:26;;;;;;;31.10;13.67;;;6.10;99.90;;;;;;647363;222;26514;-80
2021/12/17 00:59:51;;;;;;;23.87;12.77;;;6.10;99.90;;;;;;648142;221;27283;-77
2021/12/17 01:02:18;;;;;;;34.77;13.27;;;6.10;99.90;;;;;;648222;217;26595;-80
2021/12/17 01:04:45;;;;;;;26.00;12.40;;;6.10;99.90;;;;;;644898;221;26821;-80
2021/12/17 01:07:13;;;;;;;24.80;12.33;;;6.10;99.90;;;;;;645004;221;26558;-82
2021/12/17 01:09:40;;;;;;;30.20;12.20;;;6.00;99.90;;;;;;641912;222;26849;-81
2021/12/17 01:12:07;;;;;;;25.23;12.30;;;6.00;99.90;;;;;;645918;222;26527;-80
2021/12/17 01:14:34;;;;;;;18.10;11.47;;;6.00;99.90;;;;;;643952;217;26775;-83
2021/12/17 01:17:02;;;;;;;24.63;12.30;;;6.00;99.90;;;;;;640411;222;26589;-80
2021/12/17 01:20:08;;;;;;;27.40;12.63;;;6.10;99.90;;;;;;647164;222;26842;-79
2021/12/17 01:22:30;;;;;;;23.97;11.73;;;5.90;99.90;;;;;;646810;220;26599;-80
2021/12/17 01:24:43;;;;;;;23.30;11.00;;;5.90;99.90;;;;;;643593;221;26497;-81
2021/12/17 01:42:20;;;;;;;27.00;12.33;;;6.10;99.90;;;;;;637740;225;26784;-79
2021/12/17 01:44:47;;;;;;;21.37;10.77;;;6.00;99.90;;;;;;637745;225;26517;-79
2021/12/17 01:47:14;;;;;;;26.23;12.13;;;6.00;99.90;;;;;;637768;221;27164;-79
2021/12/17 02:00:13;;;;;;;25.70;10.73;;;6.00;99.90;;;;;;637386;226;26848;-78
2021/12/17 02:02:44;;;;;;;20.70;12.03;;;6.00;99.90;;;;;;637349;223;27224;-79
2021/12/17 02:05:08;;;;;;;25.43;10.57;;;5.90;99.90;;;;;;637152;226;26561;-79
2021/12/17 02:07:35;;;;;;;29.57;11.30;;;5.80;99.90;;;;;;637431;226;26799;-79
2021/12/17 02:10:34;;;;;;;21.03;10.30;;;5.80;99.90;;;;;;637396;226;26593;-80
2021/12/17 02:12:43;;;;;;;22.20;10.53;;;5.80;99.90;;;;;;635471;226;26601;-79
2021/12/17 02:20:25;;;;;;;25.70;11.20;;;5.90;99.90;;;;;;637435;226;26552;-79
2021/12/17 02:30:50;;;;;;;20.27;10.13;;;5.90;99.90;;;;;;637419;226;26828;-79
2021/12/17 02:33:03;;;;;;;26.80;10.13;;;5.90;99.90;;;;;;636699;223;27241;-79
2021/12/17 02:35:37;;;;;;;32.93;10.60;;;6.10;99.90;;;;;;639041;225;26577;-79
2021/12/17 02:37:59;;;;;;;22.13;9.97;;;6.00;99.90;;;;;;638022;225;26530;-79
2021/12/17 02:45:41;;;;;;;19.43;9.20;;;6.30;99.90;;;;;;635455;225;26516;-79
2021/12/17 02:48:09;;;;;;;22.67;10.20;;;6.40;99.90;;;;;;638030;225;26960;-79
2021/12/17 02:50:38;;;;;;;19.90;9.47;;;6.60;99.90;;;;;;638068;225;26562;-79
2021/12/17 02:53:08;;;;;;;31.13;10.33;;;6.90;99.90;;;;;;637748;225;26526;-79
2021/12/17 02:55:36;;;;;;;22.13;10.53;;;6.80;99.90;;;;;;637881;225;26813;-79
2021/12/17 02:58:04;;;;;;;20.73;8.97;;;6.30;99.90;;;;;;637767;225;26574;-79
2021/12/17 03:00:31;;;;;;;29.47;9.90;;;6.30;99.90;;;;;;626099;225;26571;-79
2021/12/17 03:02:58;;;;;;;28.77;10.10;;;6.10;99.90;;;;;;637795;224;26590;-79
2021/12/17 03:05:26;;;;;;;21.80;9.40;;;6.10;99.90;;;;;;637785;225;26795;-77
2021/12/17 03:07:53;;;;;;;21.90;9.43;;;5.90;99.90;;;;;;637706;225;26562;-78
2021/12/17 03:10:20;;;;;;;24.17;9.63;;;6.00;99.90;;;;;;637440;225;26831;-77
2021/12/17 03:12:51;;;;;;;22.80;8.87;;;5.90;99.90;;;;;;637456;226;26568;-78
2021/12/17 03:15:24;;;;;;;18.87;8.90;;;5.90;99.90;;;;;;637115;226;26916;-78
2021/12/17 03:18:33;;;;;;;27.13;9.27;;;6.00;99.90;;;;;;636894;226;26589;-78
2021/12/17 03:25:34;;;;;;;21.10;9.70;;;5.90;99.90;;;;;;637402;226;26793;-79
2021/12/17 03:28:01;;;;;;;24.07;9.70;;;5.90;99.90;;;;;;637410;226;26557;-79
2021/12/17 03:30:28;;;;;;;25.13;9.50;;;5.90;99.90;;;;;;637389;226;26834;-79
2021/12/17 03:32:56;;;;;;;23.60;9.67;;;5.90;99.90;;;;;;637404;226;26546;-79
2021/12/17 03:35:23;;;;;;;18.00;10.60;;;5.80;99.90;;;;;;637320;226;27331;-79
2021/12/17 03:37:51;;;;;;;23.97;10.47;;;5.90;99.90;;;;;;637253;226;26564;-78
2021/12/17 03:40:20;;;;;;;22.20;9.60;;;6.10;99.90;;;;;;637268;226;26600;-78
2021/12/17 03:42:49;;;;;;;23.93;9.70;;;6.00;99.90;;;;;;637323;226;26558;-79
2021/12/17 03:45:15;;;;;;;20.17;9.43;;;6.00;99.90;;;;;;638650;223;26553;-78
2021/12/17 03:47:42;;;;;;;21.53;9.80;;;6.10;99.90;;;;;;639207;225;26484;-78
2021/12/17 03:50:09;;;;;;;24.63;10.20;;;6.00;99.90;;;;;;638636;225;26550;-79
2021/12/17 03:52:37;;;;;;;18.40;9.90;;;5.90;99.90;;;;;;638294;225;26574;-78
2021/12/17 03:55:04;;;;;;;26.30;11.00;;;5.80;99.90;;;;;;638157;225;26496;-79
2021/12/17 03:57:32;;;;;;;24.63;10.13;;;5.90;99.90;;;;;;638063;225;26500;-78
2021/12/17 03:59:59;;;;;;;24.77;10.17;;;6.20;99.90;;;;;;638052;225;27062;-79
2021/12/17 04:02:26;;;;;;;29.23;10.43;;;6.40;99.90;;;;;;638007;225;26524;-79
2021/12/17 04:04:53;;;;;;;23.13;9.60;;;6.20;99.90;;;;;;637747;225;26832;-79
2021/12/17 04:07:20;;;;;;;18.73;9.20;;;6.20;99.90;;;;;;637707;225;26564;-79
2021/12/17 04:09:48;;;;;;;25.83;9.03;;;6.00;99.90;;;;;;637667;225;26645;-79
2021/12/17 04:12:19;;;;;;;19.27;9.53;;;6.00;99.90;;;;;;637762;225;26558;-79
2021/12/17 04:14:46;;;;;;;19.17;9.77;;;6.10;99.90;;;;;;637507;225;26565;-79
2021/12/17 04:17:11;;;;;;;22.90;9.80;;;6.10;99.90;;;;;;637654;225;26815;-78
2021/12/17 04:19:38;;;;;;;21.67;10.37;;;6.00;99.90;;;;;;637727;221;26570;-79
2021/12/17 04:22:06;;;;;;;22.67;10.33;;;6.10;99.90;;;;;;637566;225;26803;-79
2021/12/17 04:24:32;;;;;;;22.20;10.20;;;6.30;99.90;;;;;;637558;226;26570;-79
2021/12/17 04:26:59;;;;;;;18.83;9.57;;;6.20;99.90;;;;;;637552;226;26751;-79
2021/12/17 04:29:27;;;;;;;18.33;9.13;;;6.10;99.90;;;;;;637493;226;26594;-79
2021/12/17 04:31:56;;;;;;;19.57;9.63;;;6.30;99.90;;;;;;637565;226;26531;-79
2021/12/17 04:34:22;;;;;;;20.00;10.47;;;6.60;99.90;;;;;;637382;226;26587;-79
2021/12/17 04:36:53;;;;;;;22.63;10.27;;;6.40;99.90;;;;;;637599;226;26546;-79
2021/12/17 04:39:20;;;;;;;25.53;10.53;;;6.30;99.90;;;;;;637306;226;26600;-79
2021/12/17 04:41:53;;;;;;;20.93;9.17;;;6.20;99.90;;;;;;637472;226;26573;-79
2021/12/17 04:44:21;;;;;;;24.43;10.00;;;6.30;99.90;;;;;;636922;226;26565;-79
2021/12/17 04:46:55;;;;;;;26.50;10.57;;;6.40;99.90;;;;;;637066;226;26537;-82
2021/12/17 04:59:25;;;;;;;25.43;10.37;;;6.50;99.90;;;;;;638833;225;26545;-82
2021/12/17 05:01:53;;;;;;;19.00;10.13;;;6.60;99.90;;;;;;638475;225;26508;-83
2021/12/17 05:04:21;;;;;;;20.93;10.37;;;6.60;99.90;;;;;;638412;225;26548;-81
2021/12/17 05:06:48;;;;;;;21.13;9.87;;;6.70;99.90;;;;;;637995;225;26524;-83
2021/12/17 05:09:29;;;;;;;22.67;9.87;;;6.90;99.90;;;;;;638078;225;26529;-83
2021/12/17 05:19:45;;;;;;;22.53;10.23;;;6.80;99.90;;;;;;637770;225;26611;-83
2021/12/17 05:22:09;;;;;;;24.77;11.30;;;6.60;99.90;;;;;;637041;223;26928;-83
2021/12/17 05:24:32;;;;;;;31.70;11.27;;;6.60;99.90;;;;;;637276;225;26579;-83
2021/12/17 05:27:00;;;;;;;22.67;10.17;;;6.10;99.90;;;;;;637620;225;26577;-83
2021/12/17 05:29:28;;;;;;;18.27;9.70;;;6.20;99.90;;;;;;637480;225;26603;-83
2021/12/17 05:31:55;;;;;;;34.67;11.37;;;6.20;99.90;;;;;;637504;225;26562;-84
2021/12/17 05:34:23;;;;;;;25.50;11.47;;;6.20;99.90;;;;;;637273;226;26575;-83
2021/12/17 05:36:50;;;;;;;21.90;10.57;;;6.10;99.90;;;;;;637497;225;26845;-83
2021/12/17 05:39:17;;;;;;;27.57;11.27;;;6.10;99.90;;;;;;637415;226;26593;-84
2021/12/17 05:41:45;;;;;;;21.10;11.13;;;6.10;99.90;;;;;;637437;226;26831;-83
2021/12/17 05:44:14;;;;;;;20.80;10.40;;;6.20;99.90;;;;;;637383;226;26561;-83
2021/12/17 05:46:53;;;;;;;25.73;11.93;;;6.30;99.90;;;;;;637270;226;26917;-84
2021/12/17 05:49:20;;;;;;;18.97;10.97;;;6.40;99.90;;;;;;637437;226;26598;-84
2021/12/17 05:51:48;;;;;;;25.60;11.30;;;6.50;99.90;;;;;;637415;226;26796;-83
2021/12/17 05:54:15;;;;;;;26.80;10.73;;;6.40;99.90;;;;;;637448;226;26791;-83
2021/12/17 05:56:42;;;;;;;21.67;11.77;;;6.00;99.90;;;;;;637532;226;26902;-84
2021/12/17 05:59:09;;;;;;;21.50;10.60;;;5.90;99.90;;;;;;637418;226;26533;-84
2021/12/17 06:01:37;;;;;;;20.93;11.03;;;5.80;99.90;;;;;;637509;226;26753;-83
2021/12/17 06:04:04;;;;;;;20.43;11.00;;;5.70;99.90;;;;;;637395;226;26563;-83
2021/12/17 06:06:32;;;;;;;26.77;10.93;;;5.80;99.90;;;;;;637417;226;26580;-83
2021/12/17 06:09:03;;;;;;;22.77;11.70;;;5.80;99.90;;;;;;638774;223;26573;-83
2021/12/17 06:11:26;;;;;;;26.57;10.00;;;6.00;99.90;;;;;;638410;225;26509;-84
2021/12/17 06:13:53;;;;;;;24.37;10.87;;;5.70;99.90;;;;;;638451;225;26794;-83
2021/12/17 06:16:20;;;;;;;20.37;9.13;;;5.50;99.90;;;;;;638298;225;26555;-83
2021/12/17 06:18:48;;;;;;;17.57;9.63;;;5.60;99.90;;;;;;637977;225;26742;-83
2021/12/17 06:21:17;;;;;;;28.33;9.83;;;5.60;99.90;;;;;;638020;225;26514;-84
2021/12/17 06:23:42;;;;;;;20.73;10.00;;;5.70;99.90;;;;;;637935;225;26775;-83
2021/12/17 06:26:09;;;;;;;18.60;10.20;;;5.80;99.90;;;;;;637893;225;26504;-83
2021/12/17 06:28:36;;;;;;;24.00;10.23;;;5.90;99.90;;;;;;637695;225;26783;-83
2021/12/17 06:31:04;;;;;;;19.00;10.03;;;5.80;99.90;;;;;;637729;225;26582;-83
2021/12/17 06:33:32;;;;;;;21.40;9.87;;;5.90;99.90;;;;;;637725;225;26570;-83
2021/12/17 06:36:00;;;;;;;20.87;10.27;;;5.90;99.90;;;;;;637716;221;26546;-83
2021/12/17 06:38:28;;;;;;;22.73;9.40;;;5.90;99.90;;;;;;638045;225;26601;-83
2021/12/17 06:40:58;;;;;;;25.27;10.70;;;5.80;99.90;;;;;;637742;225;26593;-83
2021/12/17 06:43:27;;;;;;;20.20;9.90;;;5.60;99.90;;;;;;637735;225;26860;-83
2021/12/17 06:45:54;;;;;;;21.00;9.93;;;5.70;99.90;;;;;;636957;226;26542;-83
2021/12/17 06:48:21;;;;;;;22.80;9.70;;;6.10;99.90;;;;;;636959;226;26820;-83
2021/12/17 06:56:34;;;;;;;20.17;9.30;;;5.90;99.90;;;;;;637534;226;26803;-83
2021/12/17 07:01:14;;;;;;;21.03;8.13;;;6.10;99.90;;;;;;637401;226;26603;-83
2021/12/17 07:06:11;;;;;;;21.60;9.27;;;6.00;99.90;;;;;;637404;226;26598;-84
2021/12/17 07:11:18;;;;;;;19.07;8.33;;;6.00;99.90;;;;;;637387;226;26591;-83
2021/12/17 07:21:36;;;;;;;28.13;8.97;;;5.80;99.90;;;;;;639232;225;26586;-83
2021/12/17 07:30:51;;;;;;;21.20;9.97;;;6.00;99.90;;;;;;638970;222;26572;-83
2021/12/17 07:32:51;;;;;;;17.67;9.13;;;5.90;99.90;;;;;;645941;222;26521;-83
2021/12/17 07:34:43;;;;;;;18.60;8.93;;;6.20;99.90;;;;;;639957;222;26606;-83
2021/12/17 07:39:34;;;;;;;21.63;8.03;;;6.50;99.90;;;;;;640852;220;26651;-83
2021/12/17 07:42:02;;;;;;;18.37;8.37;;;6.40;99.90;;;;;;647251;222;26590;-83
2021/12/17 07:44:29;;;;;;;18.53;8.80;;;6.20;99.90;;;;;;647217;222;26717;-83
2021/12/17 07:46:57;;;;;;;21.20;8.70;;;6.30;99.90;;;;;;647508;222;26605;-82
2021/12/17 07:49:24;;;;;;;15.17;8.13;;;6.30;99.90;;;;;;647708;222;26590;-83
2021/12/17 07:51:52;;;;;;;22.60;9.50;;;6.10;99.90;;;;;;647667;222;26817;-83
2021/12/17 07:54:19;;;;;;;18.30;8.67;;;6.20;99.90;;;;;;647649;222;26808;-83
2021/12/17 07:56:46;;;;;;;18.60;8.33;;;6.40;99.90;;;;;;647379;222;26514;-83
2021/12/17 07:59:13;;;;;;;22.03;8.73;;;6.40;99.90;;;;;;647324;221;26766;-83
2021/12/17 08:01:41;;;;;;;17.80;8.93;;;6.30;99.90;;;;;;646178;218;26515;-83
2021/12/17 08:04:10;;;;;;;18.57;8.23;;;6.10;99.90;;;;;;643972;221;26568;-83
2021/12/17 08:06:37;;;;;;;16.97;8.33;;;6.40;99.90;;;;;;646500;222;26527;-83
2021/12/17 08:09:04;;;;;;;16.93;7.67;;;6.40;99.90;;;;;;648570;221;26584;-83
2021/12/17 08:11:37;;;;;;;23.13;8.57;;;6.40;99.90;;;;;;650293;221;26520;-83
2021/12/17 08:14:01;;;;;;;21.20;9.63;;;6.40;99.90;;;;;;647966;221;26838;-80
2021/12/17 08:17:10;;;;;;;19.73;8.40;;;6.50;99.90;;;;;;643530;221;26533;-80
2021/12/17 08:23:20;;;;;;;17.07;8.93;;;6.60;99.90;;;;;;650444;220;26581;-81
2021/12/17 08:24:52;;;;;;;29.63;9.13;;;6.70;99.90;;;;;;643782;220;26810;-80
2021/12/17 08:27:10;;;;;;;17.40;8.00;;;6.60;99.90;;;;;;642141;221;26588;-80
2021/12/17 08:29:42;;;;;;;15.57;7.90;;;6.60;99.90;;;;;;636199;226;26561;-81
2021/12/17 08:31:53;;;;;;;19.80;8.63;;;6.50;99.90;;;;;;637133;223;26781;-80
2021/12/17 08:34:20;;;;;;;20.87;8.50;;;6.30;99.90;;;;;;641474;222;26566;-80
2021/12/17 08:36:47;;;;;;;23.17;9.23;;;6.50;99.90;;;;;;643508;221;26773;-79
2021/12/17 08:39:15;;;;;;;22.97;9.23;;;6.50;99.90;;;;;;644314;221;26556;-80
2021/12/17 08:41:42;;;;;;;15.07;8.57;;;6.50;99.90;;;;;;644245;221;26786;-81
2021/12/17 08:44:10;;;;;;;19.00;7.77;;;6.70;99.90;;;;;;645082;220;26562;-78
2021/12/17 08:46:39;;;;;;;17.50;8.40;;;6.50;99.90;;;;;;645677;221;26571;-78
2021/12/17 08:49:06;;;;;;;14.80;7.83;;;6.50;99.90;;;;;;640801;222;26583;-78
2021/12/17 08:51:34;;;;;;;13.60;7.83;;;6.50;99.90;;;;;;640554;221;26868;-78
2021/12/17 08:54:01;;;;;;;24.67;8.77;;;6.40;99.90;;;;;;646590;222;26777;-78
2021/12/17 08:56:28;;;;;;;16.57;8.37;;;6.60;99.90;;;;;;646543;222;26555;-78
2021/12/17 08:58:56;;;;;;;14.77;7.23;;;6.60;99.90;;;;;;647424;222;26825;-78
2021/12/17 09:01:23;;;;;;;20.73;9.97;;;6.70;99.90;;;;;;647952;222;26514;-78
2021/12/17 09:03:50;;;;;;;15.10;7.33;;;6.90;99.90;;;;;;637614;225;26590;-78
2021/12/17 09:06:18;;;;;;;15.40;6.47;;;7.20;99.90;;;;;;638950;222;26564;-78
2021/12/17 09:08:48;;;;;;;17.20;7.43;;;7.40;99.90;;;;;;647158;218;26516;-80
2021/12/17 09:11:13;;;;;;;15.03;6.57;;;7.40;99.90;;;;;;647102;222;26523;-80
2021/12/17 09:13:40;;;;;;;17.70;7.80;;;7.50;99.90;;;;;;647198;222;26520;-79
2021/12/17 09:16:08;;;;;;;19.70;7.50;;;7.40;99.90;;;;;;647142;222;27180;-77
2021/12/17 09:18:35;;;;;;;17.63;7.37;;;7.40;99.90;;;;;;647163;222;26732;-78
2021/12/17 09:21:02;;;;;;;18.20;7.33;;;7.30;99.90;;;;;;642954;218;26785;-78
2021/12/17 09:23:30;;;;;;;13.70;6.97;;;7.30;99.90;;;;;;637347;226;26546;-77
2021/12/17 09:25:58;;;;;;;16.43;6.50;;;7.40;99.90;;;;;;637419;226;26566;-78
2021/12/17 09:28:26;;;;;;;15.47;7.20;;;7.20;99.90;;;;;;648028;220;26595;-78
2021/12/17 09:30:53;;;;;;;16.00;6.63;;;7.20;99.90;;;;;;637350;226;26585;-77
2021/12/17 09:33:20;;;;;;;12.93;5.50;;;7.00;99.90;;;;;;637368;226;26579;-78
2021/12/17 09:35:47;;;;;;;18.50;7.00;;;6.70;99.90;;;;;;637341;225;26847;-77
2021/12/17 09:38:15;;;;;;;12.57;6.13;;;6.70;99.90;;;;;;637346;226;26582;-78
2021/12/17 09:40:42;;;;;;;14.37;7.57;;;7.00;99.90;;;;;;637351;226;26569;-77
2021/12/17 09:43:10;;;;;;;15.90;6.23;;;7.00;99.90;;;;;;643944;220;26546;-77
2021/12/17 09:45:37;;;;;;;14.33;6.20;;;7.30;99.90;;;;;;648859;222;26768;-77
2021/12/17 09:48:04;;;;;;;13.53;6.77;;;7.70;99.90;;;;;;640214;221;26570;-77
2021/12/17 09:50:32;;;;;;;19.37;7.20;;;7.40;99.90;;;;;;648258;220;26547;-77
2021/12/17 09:53:00;;;;;;;17.73;6.83;;;7.30;99.90;;;;;;643867;222;26512;-77
2021/12/17 09:55:27;;;;;;;17.87;6.30;;;7.30;99.90;;;;;;638119;225;26516;-78
2021/12/17 09:57:54;;;;;;;11.20;5.67;;;7.60;99.90;;;;;;638059;225;26520;-77
2021/12/17 10:00:22;;;;;;;16.20;6.10;;;7.50;99.90;;;;;;639747;222;26883;-77
2021/12/17 10:02:49;;;;;;;13.73;6.17;;;7.10;99.90;;;;;;648740;222;26503;-77
2021/12/17 10:05:17;;;;;;;15.07;6.00;;;7.30;99.90;;;;;;648718;221;26737;-77
2021/12/17 10:07:44;;;;;;;15.63;6.90;;;7.30;99.90;;;;;;648596;221;26514;-77
2021/12/17 10:10:13;;;;;;;15.17;6.17;;;7.00;99.90;;;;;;648862;221;26555;-78
2021/12/17 10:12:40;;;;;;;15.00;5.47;;;7.10;99.90;;;;;;647662;221;26537;-78
2021/12/17 10:15:10;;;;;;;12.90;6.50;;;7.10;99.90;;;;;;642411;222;26544;-77
2021/12/17 10:17:50;;;;;;;12.23;5.20;;;7.30;99.90;;;;;;647501;220;26591;-77
2021/12/17 10:20:18;;;;;;;15.23;5.83;;;7.50;99.90;;;;;;647129;222;26552;-77
2021/12/17 10:22:45;;;;;;;14.80;5.83;;;7.50;99.90;;;;;;647216;222;26520;-77
2021/12/17 10:25:12;;;;;;;11.93;5.10;;;7.30;99.90;;;;;;647141;222;26748;-78
2021/12/17 10:27:39;;;;;;;10.77;5.40;;;7.40;99.90;;;;;;647885;222;26562;-77
2021/12/17 10:30:21;;;;;;;9.73;5.43;;;7.70;99.90;;;;;;647511;221;26935;-76
2021/12/17 10:32:48;;;;;;;18.87;7.30;;;7.90;99.90;;;;;;637299;223;26563;-77
2021/12/17 10:35:17;;;;;;;16.90;6.17;;;7.80;99.90;;;;;;637235;226;26557;-76
2021/12/17 10:37:45;;;;;;;10.67;5.60;;;7.60;99.90;;;;;;644440;218;26526;-77
2021/12/17 10:40:16;;;;;;;12.97;5.87;;;7.70;99.90;;;;;;647074;222;26576;-77
2021/12/17 10:42:51;;;;;;;13.13;6.33;;;7.70;99.90;;;;;;644677;221;26510;-77
2021/12/17 10:45:13;;;;;;;10.60;5.40;;;7.80;99.90;;;;;;636999;226;26847;-79
2021/12/17 10:47:47;;;;;;;11.23;5.87;;;8.00;99.90;;;;;;637114;226;26586;-81
2021/12/17 10:50:07;;;;;;;18.53;6.43;;;8.00;99.90;;;;;;636676;226;26602;-81
2021/12/17 10:52:41;;;;;;;12.03;4.90;;;7.60;99.90;;;;;;637328;226;26572;-81
2021/12/17 10:55:08;;;;;;;15.40;5.30;;;7.70;99.90;;;;;;638005;223;26597;-80
2021/12/17 10:57:35;;;;;;;10.77;5.20;;;7.80;99.90;;;;;;638589;222;26520;-80
2021/12/17 11:00:03;;;;;;;10.17;5.40;;;7.90;99.90;;;;;;638595;221;26813;-80
2021/12/17 11:02:33;;;;;;;10.17;5.37;;;8.00;99.90;;;;;;647252;221;26523;-81
2021/12/17 11:04:57;;;;;;;12.10;5.57;;;8.30;99.90;;;;;;637726;222;26876;-80
2021/12/17 11:07:25;;;;;;;15.63;5.73;;;8.20;99.90;;;;;;636840;225;26523;-81
2021/12/17 11:09:55;;;;;;;13.27;5.50;;;8.30;99.90;;;;;;637892;225;26543;-80
2021/12/17 11:12:27;;;;;;;8.17;5.30;;;8.20;99.90;;;;;;637856;225;26515;-80
2021/12/17 11:14:52;;;;;;;11.23;5.50;;;8.00;99.90;;;;;;637490;221;26768;-80
2021/12/17 11:17:21;;;;;;;15.67;5.70;;;8.00;99.90;;;;;;637727;225;26567;-80
2021/12/17 11:19:47;;;;;;;10.47;5.07;;;8.10;99.90;;;;;;637676;222;26837;-80
2021/12/17 11:22:16;;;;;;;9.97;5.53;;;8.40;99.90;;;;;;637747;222;26576;-81
2021/12/17 11:24:43;;;;;;;13.97;5.23;;;8.50;99.90;;;;;;637800;225;26557;-80
2021/12/17 11:27:10;;;;;;;12.33;5.43;;;8.40;99.90;;;;;;637805;225;26759;-80
2021/12/17 11:29:37;;;;;;;9.90;5.60;;;8.20;99.90;;;;;;646638;222;26607;-80
2021/12/17 11:32:05;;;;;;;9.70;5.00;;;8.30;99.90;;;;;;647334;218;26774;-80
2021/12/17 11:34:32;;;;;;;7.53;5.03;;;8.30;99.90;;;;;;647083;222;26507;-79
2021/12/17 11:37:00;;;;;;;11.23;5.17;;;8.20;99.90;;;;;;647291;218;26515;-80
2021/12/17 11:39:27;;;;;;;8.23;4.90;;;8.10;99.90;;;;;;647306;222;26794;-80
2021/12/17 11:42:00;;;;;;;10.70;5.20;;;8.00;99.90;;;;;;647173;222;26515;-80
2021/12/17 11:44:39;;;;;;;10.00;5.17;;;7.60;99.90;;;;;;647339;222;26789;-80
2021/12/17 11:47:01;;;;;;;10.50;4.63;;;7.50;99.90;;;;;;646325;222;26725;-80
2021/12/17 11:49:34;;;;;;;10.43;5.10;;;7.60;99.90;;;;;;647281;222;26552;-80
2021/12/17 11:51:56;;;;;;;9.63;4.47;;;7.80;99.90;;;;;;646863;222;26865;-80
2021/12/17 11:54:26;;;;;;;12.83;4.50;;;7.90;99.90;;;;;;647265;222;26532;-80
2021/12/17 11:56:51;;;;;;;12.03;5.00;;;7.80;99.90;;;;;;646565;222;26799;-80
2021/12/17 11:59:33;;;;;;;11.47;5.00;;;8.10;99.90;;;;;;647139;222;26547;-80
2021/12/17 12:02:05;;;;;;;11.77;4.43;;;8.10;99.90;;;;;;647281;222;26541;-80
2021/12/17 12:04:42;;;;;;;9.53;4.37;;;8.20;99.90;;;;;;647218;218;26523;-80
2021/12/17 12:07:10;;;;;;;9.00;4.43;;;8.40;99.90;;;;;;648891;220;26825;-81
2021/12/17 12:09:55;;;;;;;9.60;3.83;;;8.50;99.90;;;;;;648495;222;26614;-80
2021/12/17 12:12:16;;;;;;;13.17;4.17;;;8.50;99.90;;;;;;647756;222;26502;-80
2021/12/17 12:14:43;;;;;;;12.20;4.87;;;8.50;99.90;;;;;;648145;222;26843;-80
2021/12/17 12:17:10;;;;;;;8.87;4.63;;;8.60;99.90;;;;;;647932;218;26553;-80
2021/12/17 12:19:47;;;;;;;8.83;4.20;;;8.60;99.90;;;;;;647937;221;26558;-80
2021/12/17 12:22:14;;;;;;;12.67;4.27;;;8.90;99.90;;;;;;647945;222;26827;-80
2021/12/17 12:24:41;;;;;;;7.77;4.27;;;9.10;99.90;;;;;;647777;221;26560;-80
2021/12/17 12:27:09;;;;;;;12.83;5.10;;;9.10;99.90;;;;;;647768;222;26798;-80
2021/12/17 12:29:37;;;;;;;10.53;4.80;;;8.70;99.90;;;;;;646154;222;26609;-80
2021/12/17 12:32:12;;;;;;;12.30;5.00;;;8.40;99.90;;;;;;647449;222;26608;-80
2021/12/17 12:34:39;;;;;;;8.63;4.50;;;8.40;99.90;;;;;;647585;222;26830;-80
2021/12/17 12:37:10;;;;;;;19.83;6.17;;;7.90;99.90;;;;;;647637;218;27188;-80
2021/12/17 12:39:39;;;;;;;10.53;4.47;;;8.00;99.90;;;;;;647126;222;26824;-81
2021/12/17 12:42:06;;;;;;;9.53;5.10;;;8.30;99.90;;;;;;647504;222;26766;-81
2021/12/17 12:45:12;;;;;;;10.27;4.83;;;7.90;99.90;;;;;;647075;222;26508;-80
2021/12/17 12:47:41;;;;;;;8.13;4.10;;;7.90;99.90;;;;;;647295;222;26519;-80
2021/12/17 12:50:19;;;;;;;12.90;4.80;;;7.50;99.90;;;;;;647298;222;26536;-80
2021/12/17 12:52:52;;;;;;;8.40;4.10;;;7.50;99.90;;;;;;647336;222;26511;-80
2021/12/17 12:55:22;;;;;;;10.40;4.50;;;7.60;99.90;;;;;;647346;222;26520;-80
2021/12/17 12:57:52;;;;;;;10.33;3.83;;;7.70;99.90;;;;;;647287;222;26507;-81
2021/12/17 13:00:20;;;;;;;9.43;4.37;;;7.70;99.90;;;;;;647399;222;26777;-80
2021/12/17 13:02:49;;;;;;;9.27;4.53;;;7.60;99.90;;;;;;647208;222;26503;-80
2021/12/17 13:05:16;;;;;;;11.80;5.10;;;7.60;99.90;;;;;;647306;222;26516;-80
2021/12/17 13:07:44;;;;;;;10.17;4.53;;;7.90;99.90;;;;;;647287;222;26532;-81
2021/12/17 13:10:11;;;;;;;8.90;4.03;;;7.80;99.90;;;;;;647198;220;26552;-80
2021/12/17 13:12:38;;;;;;;10.33;4.27;;;7.70;99.90;;;;;;647222;222;26514;-80
2021/12/17 13:15:16;;;;;;;12.13;4.90;;;7.70;99.90;;;;;;647270;222;26782;-80
2021/12/17 13:20:14;;;;;;;6.80;4.23;;;8.00;99.90;;;;;;647273;220;26834;-81
2021/12/17 13:22:54;;;;;;;11.73;5.07;;;8.40;99.90;;;;;;648387;221;26557;-80
2021/12/17 13:25:08;;;;;;;8.53;4.13;;;8.20;99.90;;;;;;647065;220;26481;-79
2021/12/17 13:27:35;;;;;;;13.53;5.43;;;8.20;99.90;;;;;;648412;220;26741;-80
2021/12/17 13:30:02;;;;;;;11.07;4.73;;;8.50;99.90;;;;;;648330;220;26557;-81
2021/12/17 13:32:31;;;;;;;15.07;4.80;;;8.20;99.90;;;;;;648326;222;26530;-80
2021/12/17 13:34:59;;;;;;;10.17;4.73;;;8.50;99.90;;;;;;648195;222;26534;-80
2021/12/17 13:37:24;;;;;;;12.47;5.47;;;8.30;99.90;;;;;;647829;222;26791;-80
2021/12/17 13:39:54;;;;;;;17.70;6.27;;;8.30;99.90;;;;;;647530;222;26587;-80
2021/12/17 13:42:23;;;;;;;12.53;5.13;;;8.10;99.90;;;;;;647389;222;26581;-80
2021/12/17 13:44:51;;;;;;;14.37;5.27;;;8.20;99.90;;;;;;647372;220;26757;-80
2021/12/17 13:47:25;;;;;;;14.57;4.87;;;8.40;99.90;;;;;;647555;222;26571;-80
2021/12/17 13:49:53;;;;;;;12.53;4.63;;;8.40;99.90;;;;;;647520;222;26913;-80
2021/12/17 13:52:20;;;;;;;11.23;5.20;;;8.30;99.90;;;;;;647322;222;26819;-80
2021/12/17 13:54:48;;;;;;;11.53;4.77;;;8.10;99.90;;;;;;647186;222;26507;-80
2021/12/17 13:57:16;;;;;;;11.30;4.93;;;8.30;99.90;;;;;;647319;222;26536;-80
2021/12/17 13:59:43;;;;;;;11.50;4.90;;;8.20;99.90;;;;;;647275;220;26578;-79
2021/12/17 14:02:12;;;;;;;9.23;4.23;;;8.10;99.90;;;;;;647287;221;26487;-80
2021/12/17 14:04:39;;;;;;;13.17;4.70;;;8.30;99.90;;;;;;646490;220;26485;-80
2021/12/17 14:07:08;;;;;;;10.80;4.27;;;8.10;99.90;;;;;;646250;222;26483;-80
2021/12/17 14:09:35;;;;;;;9.70;4.50;;;8.10;99.90;;;;;;647296;222;27021;-79
2021/12/17 14:12:09;;;;;;;10.00;3.67;;;8.10;99.90;;;;;;647276;222;26519;-80
2021/12/17 14:14:37;;;;;;;15.50;4.40;;;8.10;99.90;;;;;;647329;222;26732;-80
2021/12/17 14:17:05;;;;;;;7.97;3.57;;;7.90;99.90;;;;;;647319;222;26528;-80
2021/12/17 14:19:35;;;;;;;15.10;4.57;;;8.10;99.90;;;;;;638079;222;26615;-81
2021/12/17 14:22:02;;;;;;;9.07;4.00;;;8.10;99.90;;;;;;637386;226;26560;-81
2021/12/17 14:24:29;;;;;;;12.10;4.73;;;8.00;99.90;;;;;;636261;226;26838;-82
2021/12/17 14:26:57;;;;;;;9.23;4.50;;;7.80;99.90;;;;;;637411;226;26576;-81
2021/12/17 14:29:24;;;;;;;9.70;4.10;;;7.90;99.90;;;;;;638349;223;26850;-83
2021/12/17 14:31:52;;;;;;;7.90;4.00;;;8.00;99.90;;;;;;641025;222;26509;-76
2021/12/17 14:34:20;;;;;;;9.40;3.63;;;8.00;99.90;;;;;;647885;222;26568;-79
2021/12/17 14:36:47;;;;;;;14.87;4.30;;;8.00;99.90;;;;;;648217;222;26767;-80
2021/12/17 14:39:18;;;;;;;11.87;5.07;;;7.90;99.90;;;;;;647850;220;26593;-80
2021/12/17 14:41:48;;;;;;;10.73;4.30;;;7.90;99.90;;;;;;647943;222;26766;-80
2021/12/17 14:44:30;;;;;;;9.57;4.87;;;8.10;99.90;;;;;;647909;222;26531;-80
2021/12/17 14:46:45;;;;;;;14.30;4.90;;;8.10;99.90;;;;;;646689;222;26774;-81
2021/12/17 14:49:25;;;;;;;12.10;5.07;;;7.50;99.90;;;;;;640129;222;26570;-76
2021/12/17 15:04:40;;;;;;;7.83;4.13;;;7.00;99.90;;;;;;642322;222;26548;-76
2021/12/17 15:07:07;;;;;;;8.80;3.97;;;7.30;99.90;;;;;;637386;226;26537;-76
2021/12/17 15:09:35;;;;;;;11.23;4.63;;;7.50;99.90;;;;;;647805;222;26847;-75
2021/12/17 15:12:12;;;;;;;7.60;4.53;;;7.40;99.90;;;;;;644156;221;26560;-76
2021/12/17 15:14:29;;;;;;;11.50;4.40;;;7.50;99.90;;;;;;641093;221;26815;-76
2021/12/17 15:16:56;;;;;;;8.60;4.30;;;7.70;99.90;;;;;;644568;222;26472;-76